createdAt,value
2022-08-17T00:00:51.865Z,8.13
2022-08-17T00:06:13.666Z,8.05
2022-08-17T00:11:22.298Z,8.60
2022-08-17T00:16:50.415Z,9.13
2022-08-17T00:22:32.107Z,8.77
2022-08-17T00:27:18.678Z,9.20
2022-08-17T00:33:11.876Z,9.15
2022-08-17T00:37:42.136Z,9.27
2022-08-17T00:42:45.612Z,8.93
2022-08-17T00:47:47.657Z,9.43
2022-08-17T00:52:56.263Z,9.90
2022-08-17T00:58:01.598Z,8.68
2022-08-17T01:03:15.119Z,9.05
2022-08-17T01:08:19.649Z,9.55
2022-08-17T01:13:21.967Z,8.93
2022-08-17T01:18:24.153Z,9.82
2022-08-17T01:23:28.462Z,9.40
2022-08-17T01:28:52.799Z,9.30
2022-08-17T01:33:54.443Z,9.82
2022-08-17T01:38:56.139Z,9.75
2022-08-17T01:44:02.703Z,9.77
2022-08-17T01:49:09.913Z,9.85
2022-08-17T01:54:14.817Z,9.68
2022-08-17T01:59:19.797Z,10.32
2022-08-17T02:04:21.747Z,10.32
2022-08-17T02:09:29.505Z,9.85
2022-08-17T02:14:31.425Z,10.38
2022-08-17T02:19:32.979Z,9.75
2022-08-17T02:24:59.869Z,10.15
2022-08-17T02:29:58.312Z,10.38
2022-08-17T02:35:00.426Z,10.18
2022-08-17T02:40:02.717Z,11.27
2022-08-17T02:45:07.958Z,11.52
2022-08-17T02:50:12.130Z,10.80
2022-08-17T02:55:24.022Z,11.25
2022-08-17T03:00:29.948Z,10.90
2022-08-17T03:05:33.696Z,11.15
2022-08-17T03:10:35.168Z,11.50
2022-08-17T03:15:36.686Z,11.07
2022-08-17T03:20:42.292Z,12.60
2022-08-17T03:25:46.315Z,12.75
2022-08-17T03:30:47.789Z,12.23
2022-08-17T03:35:49.404Z,11.82
2022-08-17T03:40:56.488Z,11.57
2022-08-17T03:46:33.800Z,11.88
2022-08-17T03:51:55.618Z,10.55
2022-08-17T03:57:09.743Z,11.13
2022-08-17T04:02:18.773Z,11.20
2022-08-17T04:07:21.899Z,10.20
2022-08-17T04:12:24.325Z,9.38
2022-08-17T04:17:28.729Z,9.63
2022-08-17T04:22:34.238Z,9.38
2022-08-17T04:27:36.218Z,9.60
2022-08-17T04:33:06.143Z,10.10
2022-08-17T04:38:11.873Z,10.27
2022-08-17T04:43:16.483Z,9.60
2022-08-17T04:48:20.754Z,10.77
2022-08-17T04:53:22.203Z,10.38
2022-08-17T04:58:23.667Z,10.05
2022-08-17T05:03:25.093Z,9.90
2022-08-17T05:08:26.684Z,9.95
2022-08-17T05:13:32.234Z,10.45
2022-08-17T05:18:33.709Z,9.77
2022-08-17T05:23:43.013Z,10.30
2022-08-17T05:28:45.037Z,9.93
2022-08-17T05:33:47.557Z,9.88
2022-08-17T05:38:49.012Z,10.15
2022-08-17T05:43:54.377Z,11.77
2022-08-17T05:49:03.505Z,12.80
2022-08-17T05:54:56.744Z,12.32
2022-08-17T06:00:04.539Z,8.63
2022-08-17T06:05:17.273Z,9.77
2022-08-17T06:10:43.883Z,8.35
2022-08-17T06:15:59.483Z,8.65
2022-08-17T06:21:05.612Z,7.47
2022-08-17T06:26:17.459Z,7.32
2022-08-17T06:31:23.323Z,8.32
2022-08-17T06:36:33.927Z,7.53
2022-08-17T06:42:54.084Z,8.48
2022-08-17T06:47:59.498Z,8.43
2022-08-17T06:53:25.758Z,8.63
2022-08-17T06:58:31.817Z,7.05
2022-08-17T07:03:42.401Z,6.75
2022-08-17T07:09:01.047Z,7.00
2022-08-17T07:14:31.215Z,5.68
2022-08-17T07:19:35.046Z,5.75
2022-08-17T07:24:59.553Z,5.75
2022-08-17T07:30:16.075Z,5.32
2022-08-17T07:35:37.602Z,5.53
2022-08-17T07:40:57.993Z,6.53
2022-08-17T07:46:21.653Z,5.35
2022-08-17T07:51:27.703Z,5.75
2022-08-17T07:56:55.761Z,7.05
2022-08-17T08:02:06.655Z,7.65
2022-08-17T08:07:14.059Z,7.18
2022-08-17T08:12:27.174Z,7.35
2022-08-17T08:17:46.439Z,8.00
2022-08-17T08:23:15.473Z,8.75
2022-08-17T08:28:35.139Z,8.35
2022-08-17T08:33:49.195Z,9.47
2022-08-17T08:39:02.875Z,8.68
2022-08-17T08:44:16.217Z,9.32
2022-08-17T08:50:01.917Z,9.07
2022-08-17T08:55:12.319Z,11.60
2022-08-17T09:00:18.977Z,9.38
2022-08-17T09:05:23.074Z,10.50
2022-08-17T09:10:30.687Z,11.30
2022-08-17T09:15:42.565Z,11.55
2022-08-17T09:21:10.001Z,11.68
2022-08-17T09:26:22.800Z,11.70
2022-08-17T09:31:47.043Z,11.77
2022-08-17T09:37:20.520Z,12.55
2022-08-17T09:42:48.271Z,13.68
2022-08-17T09:48:27.498Z,11.88
2022-08-17T09:53:32.013Z,13.50
2022-08-17T09:58:50.367Z,13.25
2022-08-17T10:03:59.343Z,12.48
2022-08-17T10:09:09.668Z,12.30
2022-08-17T10:14:37.517Z,12.82
2022-08-17T10:19:58.636Z,13.02
2022-08-17T10:25:24.876Z,14.25
2022-08-17T10:30:35.584Z,13.60
2022-08-17T10:36:10.160Z,14.65
2022-08-17T10:41:19.641Z,16.30
2022-08-17T10:46:46.962Z,18.48
2022-08-17T10:51:55.066Z,21.73
2022-08-17T10:56:57.376Z,22.10
2022-08-17T11:02:12.281Z,20.63
2022-08-17T11:07:43.678Z,22.73
2022-08-17T11:13:11.458Z,23.25
2022-08-17T11:18:37.534Z,23.73
2022-08-17T11:23:50.819Z,24.00
2022-08-17T11:28:58.696Z,24.60
2022-08-17T11:34:07.657Z,25.45
2022-08-17T11:39:35.648Z,28.25
2022-08-17T11:44:53.520Z,27.63
2022-08-17T11:50:59.486Z,29.23
2022-08-17T11:56:05.225Z,30.40
2022-08-17T12:01:09.723Z,31.13
2022-08-17T12:06:31.176Z,31.70
2022-08-17T12:12:13.224Z,34.72
2022-08-17T12:17:40.794Z,37.08
2022-08-17T12:22:56.370Z,35.67
2022-08-17T12:28:06.753Z,36.22
2022-08-17T12:33:13.784Z,37.35
2022-08-17T12:43:35.070Z,36.20
2022-08-17T12:48:37.052Z,35.97
2022-08-17T12:53:40.765Z,38.47
2022-08-17T12:58:54.057Z,37.50
2022-08-17T13:03:59.632Z,37.72
2022-08-17T13:09:18.411Z,41.13
2022-08-17T13:14:19.946Z,37.28
2022-08-17T13:19:40.139Z,37.47
2022-08-17T13:24:53.000Z,34.40
2022-08-17T13:29:59.527Z,37.90
2022-08-17T13:35:14.381Z,35.05
2022-08-17T13:40:19.094Z,34.35
2022-08-17T13:45:50.481Z,37.53
2022-08-17T13:50:55.420Z,35.47
2022-08-17T13:56:07.302Z,30.10
2022-08-17T14:01:54.346Z,35.38
2022-08-17T14:07:12.410Z,33.17
2022-08-17T14:12:18.161Z,37.38
2022-08-17T14:17:20.053Z,40.78
2022-08-17T14:22:28.850Z,42.70
2022-08-17T14:27:33.990Z,43.73
2022-08-17T14:32:45.192Z,40.58
2022-08-17T14:37:47.946Z,40.95
2022-08-17T14:42:49.786Z,39.92
2022-08-17T14:47:51.475Z,42.22
2022-08-17T14:52:55.104Z,41.20
2022-08-17T14:57:57.145Z,40.05
2022-08-17T15:03:00.267Z,39.25
2022-08-17T15:08:02.955Z,37.15
2022-08-17T15:13:10.312Z,37.92
2022-08-17T15:18:12.042Z,35.20
2022-08-17T15:23:15.696Z,36.13
2022-08-17T15:28:17.271Z,39.22
2022-08-17T15:33:22.007Z,36.08
2022-08-17T15:38:23.861Z,43.97
2022-08-17T15:43:28.428Z,34.65
2022-08-17T15:48:44.578Z,37.53
2022-08-17T15:53:49.343Z,34.33
2022-08-17T15:58:52.331Z,32.92
2022-08-17T16:04:05.229Z,25.45
2022-08-17T16:09:19.493Z,24.60
2022-08-17T16:14:20.942Z,23.65
2022-08-17T16:19:22.442Z,21.70
2022-08-17T16:24:23.880Z,20.42
2022-08-17T16:29:25.380Z,23.25
2022-08-17T16:34:26.815Z,28.70
2022-08-17T16:39:29.197Z,31.30
2022-08-17T16:44:32.098Z,31.30
2022-08-17T16:49:36.785Z,31.52
2022-08-17T16:54:44.200Z,29.27
2022-08-17T16:59:50.122Z,32.45
2022-08-17T17:04:59.985Z,31.35
2022-08-17T17:10:09.037Z,32.30
2022-08-17T17:15:10.835Z,32.60
2022-08-17T17:20:16.661Z,31.73
2022-08-17T17:26:02.967Z,33.40
2022-08-17T17:31:23.710Z,32.55
2022-08-17T17:36:50.102Z,30.45
2022-08-17T17:41:58.877Z,31.95
2022-08-17T17:47:02.595Z,30.70
2022-08-17T17:52:13.341Z,31.08
2022-08-17T17:57:29.510Z,31.92
2022-08-17T18:03:04.400Z,30.33
2022-08-17T18:08:34.766Z,31.23
2022-08-17T18:18:40.044Z,24.65
2022-08-17T18:24:02.544Z,22.33
2022-08-17T18:29:30.098Z,23.63
2022-08-17T18:34:48.528Z,23.92
2022-08-17T18:39:50.425Z,24.50
2022-08-17T18:44:55.257Z,25.95
2022-08-17T18:50:16.845Z,24.60
2022-08-17T18:55:22.752Z,22.85
2022-08-17T19:00:30.150Z,25.23
2022-08-17T19:05:37.694Z,22.50
2022-08-17T19:10:47.044Z,21.42
2022-08-17T19:16:11.454Z,21.23
2022-08-17T19:21:23.052Z,21.65
2022-08-17T19:26:54.502Z,23.90
2022-08-17T19:31:58.380Z,24.67
2022-08-17T19:37:30.322Z,24.67
2022-08-17T19:42:49.767Z,25.05
2022-08-17T19:48:13.560Z,24.08
2022-08-17T19:53:19.513Z,25.45
2022-08-17T19:58:46.351Z,25.60
2022-08-17T20:04:07.570Z,24.52
2022-08-17T20:09:24.965Z,26.63
2022-08-17T20:14:55.408Z,27.33
2022-08-17T20:20:19.731Z,29.00
2022-08-17T20:25:30.080Z,29.08
2022-08-17T20:30:38.458Z,29.05
2022-08-17T20:35:59.656Z,30.65
2022-08-17T20:41:04.067Z,30.95
2022-08-17T20:46:36.146Z,32.97
2022-08-17T20:52:01.184Z,34.40
2022-08-17T20:57:09.276Z,35.25
2022-08-17T21:02:20.764Z,34.22
2022-08-17T21:07:24.482Z,33.75
2022-08-17T21:12:42.465Z,34.50
2022-08-17T21:17:53.931Z,34.60
2022-08-17T21:23:23.206Z,34.38
2022-08-17T21:29:00.431Z,34.38
2022-08-17T21:34:15.165Z,35.50
2022-08-17T21:39:23.329Z,36.97
2022-08-17T21:44:41.577Z,36.83
2022-08-17T21:49:43.501Z,39.13
2022-08-17T21:54:54.871Z,39.10
2022-08-17T21:59:58.576Z,37.80
2022-08-17T22:05:04.861Z,37.25
2022-08-17T22:10:27.034Z,39.13
2022-08-17T22:15:28.526Z,40.03
2022-08-17T22:20:30.003Z,38.45
2022-08-17T22:25:35.820Z,39.92
2022-08-17T22:31:01.504Z,39.70
2022-08-17T22:36:22.630Z,39.53
2022-08-17T22:42:06.266Z,40.83
2022-08-17T22:47:29.252Z,40.60
2022-08-17T22:52:56.651Z,41.05
2022-08-17T22:58:17.163Z,40.85
2022-08-17T23:03:22.161Z,41.65
2022-08-17T23:08:24.071Z,42.35
2022-08-17T23:13:26.446Z,41.65
2022-08-17T23:18:27.861Z,40.83
2022-08-17T23:23:29.334Z,40.72
2022-08-17T23:28:30.742Z,39.78
2022-08-17T23:33:38.508Z,38.92
2022-08-17T23:38:40.119Z,39.83
2022-08-17T23:43:45.088Z,39.75
2022-08-17T23:48:47.548Z,39.13
2022-08-17T23:53:55.153Z,39.72
2022-08-17T23:58:57.954Z,40.05
